• Join FlightAware (Why Join?)
  • Login
  • US Flag 
03:00AM EDT


 

Airport Tracker/Info


-or-


 

Live Flight TrackerFlight Track Log ✈ N36715 ✈ 23-May-2013 ✈ YSBK / BWU - YBCG / OOL

Flight Track Log - Related Links

Times and Time Zones

All times are in EDT time to prevent confusion due to time zone crossing. See the N36715 flight status page for this flight to view local times or setup timezone preferences in your user account.

Time Position Orientation Groundspeed Altitude Reporting Facility
EDT Latitude Longitude Course Direction KTS MPH feet Rate Location/Type
10:12PM -33.9141 150.9739 304° West 139 160 600  Level Aus ATC (RADAR)
10:13PM -33.8981 150.9455 304° West 166 191 1,900 2,160 Climbing Aus ATC (RADAR)
10:13PM -33.8792 150.9121 304° West 182 209 3,300 2,520 Climbing Aus ATC (RADAR)
10:14PM -33.8610 150.8799 304° West 175 201 5,100 2,700 Climbing Aus ATC (RADAR)
10:15PM -33.8400 150.8427 304° West 171 197 6,900 2,460 Climbing Aus ATC (RADAR)
10:15PM -33.8270 150.8180 303° West 175 201 8,200 2,400 Climbing Aus ATC (RADAR)
10:16PM -33.7837 150.8168 359° North 163 188 11,600 2,280 Climbing Aus ATC (RADAR)
10:17PM -33.7781 150.8460 77° East 163 188 12,800 2,160 Climbing Aus ATC (RADAR)
10:17PM -33.7755 150.8611 78° East 167 192 13,400 2,220 Climbing Aus ATC (RADAR)
10:18PM -33.7703 150.8932 79° East 170 196 14,700 2,040 Climbing Aus ATC (RADAR)
10:19PM -33.7625 150.9438 79° East 175 201 16,400 1,860 Climbing Aus ATC (RADAR)
10:19PM -33.7573 150.9798 80° East 181 208 17,500 1,920 Climbing Aus ATC (RADAR)
10:20PM -33.7503 151.0309 81° East 187 215 19,200 1,860 Climbing Aus ATC (RADAR)
10:22PM -33.7406 151.1151 82° East 195 224 21,600 1,680 Climbing Aus ATC (RADAR)
10:22PM -33.7379 151.1384 82° East 205 236 22,000 1,440 Climbing Aus ATC (RADAR)
10:22PM -33.7332 151.1794 82° East 213 245 22,900 660 Climbing Aus ATC (RADAR)
10:23PM -33.7262 151.2444 83° East 242 278 23,000 60 Climbing Aus ATC (RADAR)
10:24PM -33.7187 151.2997 81° East 275 316 23,000  Level Aus ATC (RADAR)
10:25PM -33.6788 151.3633 53° Northeast 288 331 23,000  Level Aus ATC (RADAR)
10:25PM -33.6464 151.3792 22° Northeast 291 335 23,000  Level Aus ATC (RADAR)
10:26PM -33.5492 151.3954 North 300 345 23,000  Level Aus ATC (RADAR)
10:27PM -33.5072 151.4025 North 303 349 23,000  Level Aus ATC (RADAR)
10:27PM -33.4816 151.4068 North 306 352 23,000  Level Aus ATC (RADAR)
10:28PM -33.4303 151.4153 North 301 346 23,000  Level Aus ATC (RADAR)
10:28PM -33.3673 151.4261 North 301 346 23,000  Level Aus ATC (RADAR)
10:29PM -33.3183 151.4347 North 302 348 23,000  Level Aus ATC (RADAR)
10:30PM -33.2480 151.4467 North 305 351 23,000  Level Aus ATC (RADAR)
10:30PM -33.2125 151.4527 North 307 353 23,000  Level Aus ATC (RADAR)
10:31PM -33.1214 151.4688 North 302 348 23,000  Level Aus ATC (RADAR)
10:32PM -33.0793 151.4764 North 304 350 23,000  Level Aus ATC (RADAR)
10:32PM -33.0396 151.4832 North 305 351 23,000  Level Aus ATC (RADAR)
10:33PM -32.9906 151.4917 North 305 351 23,000  Level Aus ATC (RADAR)
10:34PM -32.9243 151.5030 North 306 352 23,000  Level Aus ATC (RADAR)
10:34PM -32.8747 151.5115 North 306 352 23,000  Level Aus ATC (RADAR)
10:35PM -32.7965 151.5246 North 306 352 23,000  Level Aus ATC (RADAR)
10:35PM -32.7754 151.5284 North 306 352 23,000  Level Aus ATC (RADAR)
10:37PM -32.6364 151.5963 22° Northeast 309 356 23,000  Level Aus ATC (RADAR)
10:38PM -32.6106 151.6105 25° Northeast 306 352 23,000  Level Aus ATC (RADAR)
10:38PM -32.5650 151.6351 24° Northeast 308 354 23,000  Level Aus ATC (RADAR)
10:39PM -32.5130 151.6631 24° Northeast 308 354 23,000  Level Aus ATC (RADAR)
10:39PM -32.4675 151.6874 24° Northeast 308 354 23,000  Level Aus ATC (RADAR)
10:40PM -32.4025 151.7225 24° Northeast 307 353 23,000  Level Aus ATC (RADAR)
10:41PM -32.3703 151.7401 25° Northeast 306 352 23,000  Level Aus ATC (RADAR)
10:42PM -32.2605 151.7991 24° Northeast 306 352 23,000  Level Aus ATC (RADAR)
10:42PM -32.2247 151.8187 25° Northeast 303 349 23,000  Level Aus ATC (RADAR)
10:43PM -32.1797 151.8430 25° Northeast 302 348 23,000  Level Aus ATC (RADAR)
10:44PM -32.1321 151.8683 24° Northeast 303 349 23,000  Level Aus ATC (RADAR)
10:44PM -32.0868 151.8925 24° Northeast 306 352 23,000  Level Aus ATC (RADAR)
10:45PM -32.0221 151.9274 25° Northeast 307 353 23,000  Level Aus ATC (RADAR)
10:45PM -31.9900 151.9452 25° Northeast 306 352 23,000  Level Aus ATC (RADAR)
10:47PM -31.9053 151.9900 24° Northeast 307 353 23,000 -60 Level Aus ATC (RADAR)
10:47PM -31.8603 152.0143 25° Northeast 307 353 22,900 -120 Descending Aus ATC (RADAR)
10:47PM -31.8340 152.0279 24° Northeast 309 356 22,900  Level Aus ATC (RADAR)
10:48PM -31.7818 152.0555 24° Northeast 310 357 22,900  Level Aus ATC (RADAR)
10:49PM -31.7326 152.0822 25° Northeast 306 352 22,900  Level Aus ATC (RADAR)
10:49PM -31.6844 152.1073 24° Northeast 306 352 22,900  Level Aus ATC (RADAR)
10:50PM -31.6262 152.1382 24° Northeast 306 352 22,900  Level Aus ATC (RADAR)
10:51PM -31.5939 152.1555 25° Northeast 307 353 22,900  Level Aus ATC (RADAR)
10:52PM -31.5126 152.1987 24° Northeast 303 349 22,900  Level Aus ATC (RADAR)
10:52PM -31.4783 152.2176 25° Northeast 305 351 22,900  Level Aus ATC (RADAR)
10:52PM -31.4458 152.2344 24° Northeast 307 353 22,900  Level Aus ATC (RADAR)
10:53PM -31.4010 152.2582 24° Northeast 305 351 22,900  Level Aus ATC (RADAR)
10:54PM -31.3370 152.2922 24° Northeast 304 350 22,900  Level Aus ATC (RADAR)
10:54PM -31.2921 152.3159 24° Northeast 304 350 22,900  Level Aus ATC (RADAR)
10:55PM -31.2277 152.3502 25° Northeast 306 352 22,900  Level Aus ATC (RADAR)
10:56PM -31.1954 152.3669 24° Northeast 305 351 22,900  Level Aus ATC (RADAR)
10:57PM -31.0981 152.4172 24° Northeast 306 352 22,900  Level Aus ATC (RADAR)
10:58PM -31.0553 152.4397 24° Northeast 301 346 22,900  Level Aus ATC (RADAR)
10:58PM -31.0279 152.4544 25° Northeast 303 349 22,900  Level Aus ATC (RADAR)
10:59PM -30.9765 152.4806 24° Northeast 303 349 22,900  Level Aus ATC (RADAR)
10:59PM -30.9068 152.5170 24° Northeast 300 345 22,900  Level Aus ATC (RADAR)
11:00PM -30.8621 152.5403 24° Northeast 302 348 22,900  Level Aus ATC (RADAR)
11:01PM -30.8004 152.5724 24° Northeast 298 343 22,900  Level Aus ATC (RADAR)
11:02PM -30.6951 152.6212 22° Northeast 299 344 22,900  Level Aus ATC (RADAR)
11:03PM -30.6565 152.6394 22° Northeast 300 345 22,900  Level Aus ATC (RADAR)
11:03PM -30.6320 152.6499 20° North 297 342 22,900  Level Aus ATC (RADAR)
11:04PM -30.5864 152.6700 21° North 298 343 22,900  Level Aus ATC (RADAR)
11:04PM -30.5220 152.7004 22° Northeast 297 342 22,900  Level Aus ATC (RADAR)
11:05PM -30.4830 152.7185 22° Northeast 298 343 22,900  Level Aus ATC (RADAR)
11:06PM -30.4357 152.7406 22° Northeast 303 349 22,900  Level Aus ATC (RADAR)
11:06PM -30.3730 152.7702 22° Northeast 299 344 22,900  Level Aus ATC (RADAR)
11:08PM -30.2600 152.8211 21° North 300 345 22,900  Level Aus ATC (RADAR)
11:08PM -30.2365 152.8327 23° Northeast 298 343 22,900  Level Aus ATC (RADAR)
11:09PM -30.1959 152.8518 22° Northeast 300 345 22,900  Level Aus ATC (RADAR)
11:09PM -30.1311 152.8807 21° North 300 345 22,900  Level Aus ATC (RADAR)
11:10PM -30.0817 152.9035 22° Northeast 296 341 22,900  Level Aus ATC (RADAR)
11:11PM -30.0220 152.9314 22° Northeast 299 344 22,900  Level Aus ATC (RADAR)
11:11PM -29.9900 152.9460 22° Northeast 299 344 22,900  Level Aus ATC (RADAR)
11:13PM -29.8543 153.0073 21° North 301 346 22,900  Level Aus ATC (RADAR)
11:13PM -29.8351 153.0169 23° Northeast 301 346 22,900  Level Aus ATC (RADAR)
11:14PM -29.7898 153.0364 21° North 300 345 22,900 -120 Level Aus ATC (RADAR)
11:15PM -29.7248 153.0656 21° North 301 346 22,800 -120 Descending Aus ATC (RADAR)
11:15PM -29.6796 153.0868 22° Northeast 300 345 22,800  Level Aus ATC (RADAR)
11:16PM -29.6070 153.1233 24° Northeast 290 334 22,800  Level Aus ATC (RADAR)
11:17PM -29.5837 153.1302 15° North 296 341 22,800  Level Aus ATC (RADAR)
11:18PM -29.4749 153.1791 21° North 297 342 22,800  Level Aus ATC (RADAR)
11:18PM -29.4432 153.1939 22° Northeast 297 342 22,800  Level Aus ATC (RADAR)
11:19PM -29.3961 153.2182 24° Northeast 289 333 22,800  Level Aus ATC (RADAR)
11:20PM -29.3347 153.2422 19° North 294 338 22,800  Level Aus ATC (RADAR)
11:20PM -29.2903 153.2625 22° Northeast 296 341 22,800 -780 Level Aus ATC (RADAR)
11:21PM -29.2243 153.2928 22° Northeast 313 360 21,700 -1,440 Descending Aus ATC (RADAR)
11:22PM -29.1956 153.3047 20° North 325 374 21,100 -1,800 Descending Aus ATC (RADAR)
11:23PM -29.0787 153.3570 21° North 343 395 18,700 -1,860 Descending Aus ATC (RADAR)
11:23PM -29.0490 153.3703 21° North 345 397 18,100 -1,800 Descending Aus ATC (RADAR)
11:24PM -28.9979 153.3931 21° North 339 390 17,100 -1,800 Descending Aus ATC (RADAR)
11:24PM -28.9422 153.4167 20° North 321 369 15,900 -1,680 Descending Aus ATC (RADAR)
11:25PM -28.8955 153.4389 23° Northeast 313 360 15,000 -1,680 Descending Aus ATC (RADAR)
11:26PM -28.8488 153.4598 21° North 311 358 14,000 -1,680 Descending Aus ATC (RADAR)
11:26PM -28.8018 153.4802 21° North 311 358 13,100 -1,620 Descending Aus ATC (RADAR)
11:27PM -28.7154 153.5181 21° North 307 353 11,300 -1,500 Descending Aus ATC (RADAR)
11:28PM -28.6766 153.5352 21° North 300 345 10,800 -1,320 Descending Aus ATC (RADAR)
11:28PM -28.6446 153.5495 21° North 299 344 10,100 -1,740 Descending Aus ATC (RADAR)
11:29PM -28.5998 153.5693 21° North 297 342 9,100 -1,680 Descending Aus ATC (RADAR)
11:29PM -28.5561 153.5892 22° Northeast 290 334 8,200 -1,560 Descending Aus ATC (RADAR)
11:30PM -28.5090 153.6097 21° North 273 314 7,200 -1,440 Descending Aus ATC (RADAR)
11:31PM -28.4557 153.6298 18° North 270 311 6,200 -1,380 Descending Aus ATC (RADAR)
11:31PM -28.4268 153.6410 19° North 264 304 5,600 -1,380 Descending Aus ATC (RADAR)
11:32PM -28.3562 153.6283 351° North 221 254 4,100 -1,260 Descending Aus ATC (RADAR)
11:33PM -28.3301 153.6118 331° Northwest 215 247 3,500 -1,140 Descending Aus ATC (RADAR)
11:33PM -28.3092 153.5986 331° Northwest 208 239 3,100 -1,020 Descending Aus ATC (RADAR)
11:34PM -28.2805 153.5802 330° Northwest 203 234 2,500 -1,080 Descending Aus ATC (RADAR)
11:35PM -28.2431 153.5556 330° Northwest 181 208 1,600 -960 Descending Aus ATC (RADAR)
11:35PM -28.2223 153.5423 331° Northwest 149 171 1,200 -720 Descending Aus ATC (RADAR)
11:36PM -28.1994 153.5282 331° Northwest 126 145 700 -660 Descending Aus ATC (RADAR)
11:37PM -28.1849 153.5190 331° Northwest 119 137 400 -600 Descending Aus ATC (RADAR)